SIA1201 VVNB-RPLL
Flight info
| Callsign | SIA1201 |
|---|---|
| Flight time | N/A |
| Altitude | 37000 |
| Route | NAKHA R474 GYA A599 POU B330 BIGEX A461 AVMUP W16 TADEL |
| Aircraft | A388/J-V/N |
Departure
| Time | 2026-04-29 12:27 |
|---|---|
| Airport | Noi Bai International Airport (VVNB) |
Arrival
| Time | N/A |
|---|---|
| Airport | Ninoy Aquino International Airport (RPLL) |
| Time | Latitude | Longitude | Altitude | Speed | Heading |
|---|---|---|---|---|---|
| 2026-04-29 12:08 | 21.21955 | 105.79167 | 54 ft | 0 kts | 198° |
| 2026-04-29 12:17 | 21.21974 | 105.79174 | 48 ft | 3 kts | 198° |
| 2026-04-29 12:18 | 21.21991 | 105.79181 | 46 ft | 3 kts | 205° |
| 2026-04-29 12:18 | 21.22007 | 105.79193 | 46 ft | 3 kts | 221° |
| 2026-04-29 12:18 | 21.22019 | 105.79213 | 46 ft | 3 kts | 243° |
| 2026-04-29 12:18 | 21.22024 | 105.79237 | 46 ft | 3 kts | 265° |
| 2026-04-29 12:19 | 21.22020 | 105.79260 | 48 ft | 3 kts | 286° |
| 2026-04-29 12:19 | 21.22019 | 105.79265 | 46 ft | 0 kts | 288° |
| 2026-04-29 12:21 | 21.22020 | 105.79261 | 54 ft | 3 kts | 288° |
| 2026-04-29 12:21 | 21.22037 | 105.79206 | 48 ft | 2 kts | 289° |
| 2026-04-29 12:22 | 21.22042 | 105.79190 | 52 ft | 5 kts | 289° |
| 2026-04-29 12:22 | 21.22065 | 105.79153 | 48 ft | 7 kts | 333° |
| 2026-04-29 12:22 | 21.22120 | 105.79148 | 50 ft | 8 kts | 340° |
| 2026-04-29 12:22 | 21.22162 | 105.79093 | 52 ft | 12 kts | 283° |
| 2026-04-29 12:23 | 21.22191 | 105.78997 | 54 ft | 15 kts | 286° |
| 2026-04-29 12:23 | 21.22220 | 105.78884 | 51 ft | 16 kts | 291° |
| 2026-04-29 12:23 | 21.22242 | 105.78822 | 52 ft | 17 kts | 285° |
| 2026-04-29 12:24 | 21.22243 | 105.78816 | 51 ft | 17 kts | 285° |
| 2026-04-29 12:24 | 21.22281 | 105.78680 | 50 ft | 11 kts | 290° |
| 2026-04-29 12:24 | 21.22288 | 105.78661 | 52 ft | 5 kts | 294° |
| 2026-04-29 12:25 | 21.22312 | 105.78619 | 49 ft | 4 kts | 340° |
| 2026-04-29 12:25 | 21.22363 | 105.78614 | 52 ft | 9 kts | 7° |
| 2026-04-29 12:25 | 21.22444 | 105.78652 | 48 ft | 3 kts | 47° |
| 2026-04-29 12:26 | 21.22451 | 105.78676 | 48 ft | 6 kts | 86° |
| 2026-04-29 12:26 | 21.22441 | 105.78735 | 52 ft | 0 kts | 107° |
| 2026-04-29 12:26 | 21.22440 | 105.78738 | 48 ft | 2 kts | 105° |
| 2026-04-29 12:26 | 21.22422 | 105.78808 | 51 ft | 38 kts | 106° |
| 2026-04-29 12:27 | 21.22239 | 105.79433 | 47 ft | 133 kts | 107° |
| 2026-04-29 12:27 | 21.21900 | 105.80578 | 206 ft | 176 kts | 111° |
| 2026-04-29 12:27 | 21.21547 | 105.81806 | 1000 ft | 176 kts | 109° |
| 2026-04-29 12:27 | 21.21153 | 105.83119 | 1497 ft | 193 kts | 108° |
| 2026-04-29 12:28 | 21.20880 | 105.84058 | 1749 ft | 205 kts | 108° |
| 2026-04-29 12:28 | 21.20302 | 105.86123 | 2135 ft | 228 kts | 107° |
| 2026-04-29 12:28 | 21.19994 | 105.87250 | 2408 ft | 247 kts | 107° |
| 2026-04-29 12:28 | 21.19496 | 105.89083 | 3164 ft | 261 kts | 107° |
| 2026-04-29 12:29 | 21.18984 | 105.90973 | 4085 ft | 268 kts | 107° |
| 2026-04-29 12:29 | 21.18463 | 105.92894 | 5254 ft | 269 kts | 107° |
| 2026-04-29 12:29 | 21.17938 | 105.94830 | 6333 ft | 274 kts | 107° |
| 2026-04-29 12:29 | 21.17472 | 105.96831 | 7373 ft | 280 kts | 96° |
| 2026-04-29 12:30 | 21.17711 | 105.98899 | 8419 ft | 284 kts | 69° |
| 2026-04-29 12:30 | 21.18775 | 106.00686 | 9432 ft | 289 kts | 44° |
| 2026-04-29 12:30 | 21.20430 | 106.01928 | 10383 ft | 295 kts | 29° |
| 2026-04-29 12:30 | 21.22306 | 106.02992 | 10821 ft | 318 kts | 27° |
| 2026-04-29 12:31 | 21.24347 | 106.04121 | 11159 ft | 341 kts | 27° |
| 2026-04-29 12:31 | 21.26463 | 106.05350 | 11867 ft | 348 kts | 29° |
| 2026-04-29 12:31 | 21.28581 | 106.06629 | 12705 ft | 352 kts | 30° |
| 2026-04-29 12:31 | 21.30724 | 106.07952 | 13511 ft | 357 kts | 30° |
| 2026-04-29 12:32 | 21.32883 | 106.09298 | 14304 ft | 361 kts | 30° |
| 2026-04-29 12:32 | 21.35062 | 106.10660 | 15074 ft | 365 kts | 30° |
| 2026-04-29 12:32 | 21.37272 | 106.12043 | 15818 ft | 369 kts | 30° |
| 2026-04-29 12:32 | 21.39501 | 106.13437 | 16580 ft | 374 kts | 30° |
| 2026-04-29 12:33 | 21.41762 | 106.14850 | 17366 ft | 378 kts | 30° |
| 2026-04-29 12:33 | 21.44045 | 106.16278 | 18154 ft | 382 kts | 30° |
| 2026-04-29 12:33 | 21.46360 | 106.17725 | 18933 ft | 387 kts | 30° |
| 2026-04-29 12:33 | 21.48698 | 106.19188 | 19715 ft | 392 kts | 30° |
| 2026-04-29 12:34 | 21.51066 | 106.20670 | 20497 ft | 396 kts | 30° |
| 2026-04-29 12:34 | 21.53457 | 106.22167 | 21251 ft | 401 kts | 30° |
| 2026-04-29 12:34 | 21.55883 | 106.23687 | 21963 ft | 405 kts | 30° |
| 2026-04-29 12:34 | 21.58328 | 106.25219 | 22650 ft | 410 kts | 30° |
| 2026-04-29 12:35 | 21.60802 | 106.26770 | 23318 ft | 414 kts | 30° |
| 2026-04-29 12:35 | 21.63307 | 106.28341 | 23973 ft | 418 kts | 30° |
| 2026-04-29 12:35 | 21.65827 | 106.29921 | 24610 ft | 422 kts | 30° |
| 2026-04-29 12:35 | 21.68376 | 106.31521 | 25231 ft | 426 kts | 30° |
| 2026-04-29 12:36 | 21.70949 | 106.33137 | 25723 ft | 429 kts | 30° |
| 2026-04-29 12:36 | 21.73535 | 106.34761 | 26192 ft | 433 kts | 30° |
| 2026-04-29 12:36 | 21.76146 | 106.36403 | 26665 ft | 436 kts | 30° |
| 2026-04-29 12:36 | 21.78783 | 106.38061 | 27175 ft | 440 kts | 30° |
| 2026-04-29 12:37 | 21.81435 | 106.39730 | 27675 ft | 443 kts | 30° |
| 2026-04-29 12:37 | 21.84107 | 106.41411 | 28170 ft | 447 kts | 30° |
| 2026-04-29 12:37 | 21.86803 | 106.43109 | 28664 ft | 450 kts | 30° |
| 2026-04-29 12:37 | 21.89477 | 106.44793 | 29140 ft | 453 kts | 30° |
| 2026-04-29 12:38 | 21.92212 | 106.46517 | 29623 ft | 457 kts | 30° |
| 2026-04-29 12:38 | 21.94963 | 106.48252 | 30097 ft | 460 kts | 30° |
| 2026-04-29 12:38 | 21.97630 | 106.50158 | 30566 ft | 464 kts | 37° |
| 2026-04-29 12:38 | 22.00150 | 106.52356 | 31034 ft | 467 kts | 39° |
| 2026-04-29 12:39 | 22.02676 | 106.54571 | 31495 ft | 470 kts | 39° |
| 2026-04-29 12:39 | 22.05233 | 106.56797 | 31948 ft | 474 kts | 39° |
| 2026-04-29 12:39 | 22.07813 | 106.59042 | 32384 ft | 477 kts | 39° |
| 2026-04-29 12:39 | 22.10402 | 106.61297 | 32815 ft | 480 kts | 39° |
| 2026-04-29 12:40 | 22.13006 | 106.63567 | 33236 ft | 484 kts | 39° |
| 2026-04-29 12:40 | 22.15629 | 106.65857 | 33654 ft | 487 kts | 39° |
| 2026-04-29 12:40 | 22.18217 | 106.68236 | 34058 ft | 490 kts | 44° |
| 2026-04-29 12:40 | 22.20643 | 106.70832 | 34442 ft | 493 kts | 45° |
| 2026-04-29 12:41 | 22.23085 | 106.73439 | 34885 ft | 495 kts | 44° |
| 2026-04-29 12:41 | 22.25543 | 106.76051 | 35417 ft | 495 kts | 44° |
| 2026-04-29 12:41 | 22.27995 | 106.78655 | 35995 ft | 494 kts | 44° |
| 2026-04-29 12:41 | 22.30435 | 106.81250 | 36523 ft | 493 kts | 45° |
| 2026-04-29 12:42 | 22.32733 | 106.84001 | 36892 ft | 495 kts | 52° |
| 2026-04-29 12:42 | 22.34638 | 106.87130 | 37004 ft | 503 kts | 62° |
| 2026-04-29 12:42 | 22.36096 | 106.90605 | 37001 ft | 514 kts | 70° |
| 2026-04-29 12:42 | 22.37059 | 106.94365 | 37001 ft | 525 kts | 79° |
| 2026-04-29 12:43 | 22.37737 | 106.98275 | 37000 ft | 535 kts | 79° |
| 2026-04-29 12:43 | 22.39178 | 107.06298 | 37200 ft | 547 kts | 82° |
| 2026-04-29 12:43 | 22.39840 | 107.10260 | 38628 ft | 524 kts | 83° |
| 2026-04-29 12:44 | 22.40422 | 107.14091 | 39759 ft | 508 kts | 84° |
| 2026-04-29 12:44 | 22.40922 | 107.17734 | 41546 ft | 468 kts | 86° |
| 2026-04-29 12:44 | 22.41324 | 107.20956 | 43932 ft | 406 kts | 89° |
| 2026-04-29 12:44 | 22.41634 | 107.23718 | 46296 ft | 342 kts | 91° |
| 2026-04-29 12:45 | 22.41868 | 107.26209 | 46735 ft | 333 kts | 92° |
| 2026-04-29 12:45 | 22.42021 | 107.28816 | 45293 ft | 369 kts | 95° |
| 2026-04-29 12:45 | 22.42037 | 107.31783 | 43696 ft | 415 kts | 98° |
| 2026-04-29 12:45 | 22.41902 | 107.34940 | 43527 ft | 417 kts | 100° |
| 2026-04-29 12:46 | 22.41674 | 107.37960 | 44399 ft | 390 kts | 102° |
| 2026-04-29 12:46 | 22.41380 | 107.40797 | 45090 ft | 371 kts | 104° |
| 2026-04-29 12:46 | 22.41008 | 107.43541 | 45026 ft | 371 kts | 107° |
| 2026-04-29 12:46 | 22.40519 | 107.46333 | 44452 ft | 385 kts | 109° |
| 2026-04-29 12:47 | 22.39892 | 107.49192 | 43995 ft | 396 kts | 111° |
| 2026-04-29 12:47 | 22.38312 | 107.54826 | 44278 ft | 384 kts | 116° |
| 2026-04-29 12:47 | 22.37404 | 107.57515 | 44418 ft | 378 kts | 118° |
| 2026-04-29 12:48 | 22.36405 | 107.60149 | 44306 ft | 380 kts | 121° |
| 2026-04-29 12:48 | 22.35301 | 107.62752 | 44080 ft | 384 kts | 123° |
| 2026-04-29 12:48 | 22.34083 | 107.65331 | 43941 ft | 386 kts | 125° |
| 2026-04-29 12:49 | 22.31376 | 107.70298 | 44005 ft | 380 kts | 130° |
| 2026-04-29 12:49 | 22.28349 | 107.74967 | 43922 ft | 379 kts | 135° |
| 2026-04-29 12:50 | 22.24974 | 107.79361 | 43769 ft | 380 kts | 139° |
| 2026-04-29 12:50 | 22.21293 | 107.83433 | 43733 ft | 378 kts | 144° |
| 2026-04-29 12:51 | 22.17342 | 107.87151 | 43666 ft | 377 kts | 148° |
| 2026-04-29 12:51 | 22.13114 | 107.90515 | 43559 ft | 377 kts | 153° |
| 2026-04-29 12:52 | 22.08668 | 107.93483 | 43501 ft | 375 kts | 158° |
| 2026-04-29 12:52 | 22.04028 | 107.96040 | 43424 ft | 375 kts | 162° |
| 2026-04-29 12:53 | 21.99216 | 107.98177 | 43352 ft | 374 kts | 167° |
| 2026-04-29 12:53 | 21.94268 | 107.99877 | 43290 ft | 373 kts | 172° |
| 2026-04-29 12:54 | 21.89224 | 108.01130 | 43230 ft | 372 kts | 176° |
| 2026-04-29 12:54 | 21.84102 | 108.01931 | 43168 ft | 371 kts | 181° |
| 2026-04-29 12:55 | 21.78950 | 108.02274 | 43104 ft | 371 kts | 186° |
| 2026-04-29 12:55 | 21.73804 | 108.02159 | 43050 ft | 370 kts | 191° |
| 2026-04-29 12:56 | 21.68691 | 108.01588 | 42998 ft | 369 kts | 195° |
| 2026-04-29 12:56 | 21.63646 | 108.00565 | 42944 ft | 368 kts | 200° |
| 2026-04-29 12:57 | 21.58710 | 107.99100 | 42889 ft | 368 kts | 205° |
| 2026-04-29 12:57 | 21.53911 | 107.97203 | 42836 ft | 367 kts | 210° |
| 2026-04-29 12:58 | 21.49281 | 107.94886 | 42793 ft | 367 kts | 214° |
| 2026-04-29 12:58 | 21.44878 | 107.92148 | 42743 ft | 364 kts | 220° |
| 2026-04-29 12:58 | 21.43168 | 107.90738 | 42235 ft | 371 kts | 225° |
| 2026-04-29 12:59 | 21.41408 | 107.88753 | 42025 ft | 362 kts | 230° |